McCook, NE

07:05 AM CST em 23 de Novembro de 2014 (GMT -0600)
McCook Municipal | Change Station
CLOSE
Current Station
Aeroporto
Location: McCook,
Altitude: 2579 ft
Estações Meteorológicas Próximas

Elev 2579 ft 40.20 °N, 100.59 °W | Updated 12 minutes ago

Céu Encoberto
Céu Encoberto
46 °F
Aparente 38 °F
N
23
Vento Variável Vento de Norte
Gusts 30 mph

Hoje
Máxima -- | Mínima -- °F
--% Possibilidade de Precip.
Ontem
Máxima -- | Mínima -- °F
Precip. -- pol
7:37 AM 5:20 PM
Lua nova, 1% visible
Pressão 29.57 pol
Visibilidade 10.0 milhas
Nuvens Poucas 6500 ft
Muito Nublado 8000 ft
Céu Encoberto 10000 ft
Sensação Térmica 38 °F
Ponto de Orvalho 27 °F
Humidade 47%
Chuva 0.00 pol
Altura de Neve Não disponível
UV 0 em vez de 12
Pólen .10 em vez de 12
Qualidade do Ar Não disponível
Flu Activity Não disponível
METAR KMCK 231253Z AUTO 36020G26KT 10SM FEW065 BKN080 OVC100 08/M03 A2957 RMK AO2 PK WND 35037/1212 SLP013 T00781028

More Conditions Fewer Conditions

Pressão 29.57 pol
Visibilidade 10.0 milhas
Nuvens Poucas 6500 ft
Muito Nublado 8000 ft
Céu Encoberto 10000 ft
Sensação Térmica 38 °F
Ponto de Orvalho 27 °F
Humidade 47%
Chuva 0.00 pol
Altura de Neve Não disponível
UV 0 em vez de 12
Pólen .10 em vez de 12
Qualidade do Ar Não disponível
Flu Activity Não disponível
METAR KMCK 231253Z AUTO 36020G26KT 10SM FEW065 BKN080 OVC100 08/M03 A2957 RMK AO2 PK WND 35037/1212 SLP013 T00781028

More Conditions Fewer Conditions

10-Day Weather Forecast

Almanac

Astronomia

Nov. 23, 2014 Nascer Pôr
Hora atual
Crepúsculo civil
Crepúsculo náutico
Crepúsculo astronómico
Lua
Comprimento da luz visível
Duração do Dia
Tomorrow will be .
, % of the Moon is Illuminated

Extremos de Hoje

situação na parte mais alta situação na parte mais baixa

Community

WunderPhotos

Upload Photos

1,773,054 fotografias inseridas!

WunderBlogs® & News

Nearby

Qualidade do Ar

  Qualidade do Ar Índice da Q.A. Poluente
Not available.

Altura da Neve

Estação altura Altitude

Actividade Sísmisca

Cidade Distância Mag. Hora & Data
Mínima magnitude apresentada é 2.5.

Temperaturas das Águas Costeiras

Local Temperatura

Estações Meteorológicas Próximas